KUOX/UOX METAR and TAF weather

Enter ICAO airport designator
Station Type Date Time Source
KUOX METAR 2019/11/14 04:15 UTC NOAA

KUOX 140415Z AUTO 00000KT 10SM CLR 01/M06 A3024 RMK AO2


Station Type Date Time Source
KUOX Decoded METAR 2019/11/14 04:15 UTC NOAA

Oxford, University-Oxford Airport, MS, United States (KUOX) 34-23-04N 089-32-08W
Nov 13, 2019 - 11:15 PM EST / 2019.11.14 0415 UTC
Wind: Calm:0
Visibility: 10 mile(s):0
Sky conditions: clear
Temperature: 33 F (1 C)
Dew Point: 21 F (-6 C)
Relative Humidity: 59%
Pressure (altimeter): 30.24 in. Hg (1024 hPa)
ob: KUOX 140415Z AUTO 00000KT 10SM CLR 01/M06 A3024 RMK AO2
cycle: 4

Station Type Date Time Source
KUOX TAF UTC NOAA

Error!

Example: see airport list